createdAt,value
2019-05-02T04:00:34.978Z,995.03
2019-05-02T04:02:34.954Z,995.00
2019-05-02T04:04:34.948Z,994.98
2019-05-02T04:06:34.911Z,994.99
2019-05-02T04:08:34.899Z,994.94
2019-05-02T04:10:34.912Z,995.03
2019-05-02T04:12:34.847Z,994.98
2019-05-02T04:14:38.092Z,994.97
2019-05-02T04:16:34.815Z,994.97
2019-05-02T04:18:34.807Z,994.94
2019-05-02T04:20:34.756Z,994.97
2019-05-02T04:22:34.748Z,994.96
2019-05-02T04:24:34.766Z,994.99
2019-05-02T04:26:34.695Z,994.88
2019-05-02T04:28:34.683Z,994.83
2019-05-02T04:30:34.700Z,994.97
2019-05-02T04:32:34.630Z,994.97
2019-05-02T04:34:34.631Z,994.97
2019-05-02T04:36:34.598Z,994.97
2019-05-02T04:38:44.384Z,994.86
2019-05-02T04:40:41.801Z,994.86
2019-05-02T04:42:35.524Z,994.89
2019-05-02T04:44:40.870Z,994.87
2019-05-02T04:46:38.589Z,994.99
2019-05-02T04:48:39.928Z,994.94
2019-05-02T04:50:37.673Z,995.01
2019-05-02T04:52:38.494Z,994.99
2019-05-02T04:54:38.047Z,995.01
2019-05-02T04:56:39.735Z,994.95
2019-05-02T04:58:37.924Z,994.93
2019-05-02T05:00:35.339Z,995.05
2019-05-02T05:02:37.315Z,994.98
2019-05-02T05:04:41.990Z,995.01
2019-05-02T05:06:35.258Z,994.93
2019-05-02T05:08:34.300Z,995.00
2019-05-02T05:10:40.179Z,994.99
2019-05-02T05:12:39.991Z,994.95
2019-05-02T05:14:40.631Z,994.97
2019-05-02T05:16:37.323Z,994.96
2019-05-02T05:18:34.175Z,994.99
2019-05-02T05:20:34.135Z,995.06
2019-05-02T05:22:41.530Z,995.03
2019-05-02T05:24:38.525Z,995.05
2019-05-02T05:26:39.109Z,995.04
2019-05-02T05:28:39.506Z,995.07
2019-05-02T05:30:37.696Z,995.04
2019-05-02T05:32:35.104Z,995.03
2019-05-02T05:34:34.023Z,995.04
2019-05-02T05:36:34.200Z,995.04
2019-05-02T05:38:36.020Z,995.08
2019-05-02T05:40:33.997Z,995.16
2019-05-02T05:42:33.937Z,995.13
2019-05-02T05:44:33.922Z,995.02
2019-05-02T05:46:40.594Z,995.07
2019-05-02T05:48:37.212Z,995.09
2019-05-02T05:50:37.688Z,995.05
2019-05-02T05:52:38.653Z,995.12
2019-05-02T05:54:38.382Z,995.05
2019-05-02T05:56:39.751Z,995.06
2019-05-02T05:58:39.752Z,995.05
2019-05-02T06:00:34.712Z,995.04
2019-05-02T06:02:49.758Z,995.01
2019-05-02T06:04:34.731Z,995.06
2019-05-02T06:06:33.664Z,994.98
2019-05-02T06:08:33.621Z,995.04
2019-05-02T06:10:33.583Z,995.07
2019-05-02T06:12:35.628Z,995.05
2019-05-02T06:14:34.651Z,995.04
2019-05-02T06:16:35.330Z,995.06
2019-05-02T06:18:36.256Z,995.09
2019-05-02T06:20:34.493Z,995.09
2019-05-02T06:22:33.474Z,995.03
2019-05-02T06:24:33.972Z,995.05
2019-05-02T06:26:33.409Z,995.07
2019-05-02T06:28:36.182Z,995.08
2019-05-02T06:30:34.366Z,995.06
2019-05-02T06:32:33.411Z,995.07
2019-05-02T06:34:33.330Z,995.04
2019-05-02T06:36:36.930Z,995.01
2019-05-02T06:38:33.314Z,995.02
2019-05-02T06:40:33.329Z,995.03
2019-05-02T06:42:34.612Z,995.00
2019-05-02T06:44:33.225Z,994.98
2019-05-02T06:46:33.433Z,995.02
2019-05-02T06:48:33.184Z,995.03
2019-05-02T06:50:38.230Z,994.99
2019-05-02T06:52:34.641Z,995.01
2019-05-02T06:54:33.226Z,994.99
2019-05-02T06:56:33.117Z,994.99
2019-05-02T06:58:37.057Z,994.99
2019-05-02T07:00:38.464Z,995.00
2019-05-02T07:02:35.366Z,994.90
2019-05-02T07:04:32.987Z,994.97
2019-05-02T07:06:42.158Z,994.97
2019-05-02T07:08:34.035Z,994.86
2019-05-02T07:10:44.090Z,994.92
2019-05-02T07:12:33.908Z,994.89
2019-05-02T07:14:32.884Z,994.87
2019-05-02T07:16:38.611Z,994.85
2019-05-02T07:18:33.847Z,994.85
2019-05-02T07:20:35.125Z,994.84
2019-05-02T07:22:38.828Z,994.81
2019-05-02T07:25:45.274Z,994.82
2019-05-02T07:27:44.319Z,994.86
2019-05-02T07:29:44.312Z,994.81
2019-05-02T07:31:47.738Z,994.74
2019-05-02T07:33:44.268Z,994.78
2019-05-02T07:35:44.248Z,994.76
2019-05-02T07:37:48.791Z,994.72
2019-05-02T07:39:45.234Z,994.71
2019-05-02T07:41:44.199Z,994.75
2019-05-02T07:43:44.159Z,994.74
2019-05-02T07:45:45.450Z,994.67
2019-05-02T07:47:44.123Z,994.74
2019-05-02T07:49:44.077Z,994.74
2019-05-02T07:51:44.090Z,994.75
2019-05-02T07:53:44.438Z,994.78
2019-05-02T07:55:44.014Z,994.79
2019-05-02T07:57:44.021Z,994.79
2019-05-02T07:59:43.986Z,994.75
2019-05-02T08:01:44.959Z,994.71
2019-05-02T08:03:44.930Z,994.79
2019-05-02T08:05:43.939Z,994.82
2019-05-02T08:07:43.919Z,994.78
2019-05-02T08:09:44.192Z,994.80
2019-05-02T08:11:43.866Z,994.75
2019-05-02T08:13:43.835Z,994.74
2019-05-02T08:15:45.593Z,994.88
2019-05-02T08:17:53.211Z,994.88
2019-05-02T08:19:44.763Z,994.86
2019-05-02T08:21:43.788Z,994.91
2019-05-02T08:23:43.749Z,994.84
2019-05-02T08:25:45.400Z,994.84
2019-05-02T08:27:43.683Z,994.89
2019-05-02T08:29:43.651Z,994.82
2019-05-02T08:31:43.638Z,994.93
2019-05-02T08:33:43.620Z,994.93
2019-05-02T08:35:43.607Z,994.92
2019-05-02T08:37:43.575Z,994.97
2019-05-02T08:39:43.604Z,994.96
2019-05-02T08:41:43.521Z,994.92
2019-05-02T08:43:44.841Z,994.95
2019-05-02T08:45:43.569Z,994.98
2019-05-02T08:47:43.466Z,995.02
2019-05-02T08:49:43.462Z,994.97
2019-05-02T08:51:43.416Z,994.95
2019-05-02T08:53:43.405Z,994.92
2019-05-02T08:55:45.317Z,994.88
2019-05-02T08:57:43.346Z,994.86
2019-05-02T08:59:43.352Z,994.94
2019-05-02T09:01:44.700Z,994.89
2019-05-02T09:03:55.325Z,994.87
2019-05-02T09:05:45.998Z,994.76
2019-05-02T09:07:43.427Z,994.74
2019-05-02T09:09:43.241Z,994.74
2019-05-02T09:11:48.260Z,994.79
2019-05-02T09:13:46.038Z,994.81
2019-05-02T09:15:49.633Z,994.76
2019-05-02T09:17:51.647Z,994.81
2019-05-02T09:19:44.119Z,994.77
2019-05-02T09:21:43.103Z,994.83
2019-05-02T09:23:43.981Z,994.77
2019-05-02T09:25:43.167Z,994.72
2019-05-02T09:27:43.040Z,994.77
2019-05-02T09:29:45.894Z,994.70
2019-05-02T09:31:46.089Z,994.71
2019-05-02T09:33:46.762Z,994.75
2019-05-02T09:35:42.942Z,994.61
2019-05-02T09:37:42.934Z,994.63
2019-05-02T09:39:42.915Z,994.59
2019-05-02T09:41:42.876Z,994.54
2019-05-02T09:43:42.893Z,994.53
2019-05-02T09:45:43.929Z,994.52
2019-05-02T09:47:56.681Z,994.53
2019-05-02T09:49:49.178Z,994.38
2019-05-02T09:51:45.575Z,994.43
2019-05-02T09:53:43.310Z,994.32
2019-05-02T09:55:50.376Z,994.40
2019-05-02T09:57:43.726Z,994.31
2019-05-02T09:59:50.439Z,994.33
2019-05-02T10:01:43.665Z,994.35
2019-05-02T10:03:42.655Z,994.31
2019-05-02T10:05:43.206Z,994.33
2019-05-02T10:07:42.619Z,994.34
2019-05-02T10:09:42.598Z,994.29
2019-05-02T10:11:42.564Z,994.23
2019-05-02T10:13:42.550Z,994.25
2019-05-02T10:15:42.517Z,994.25
2019-05-02T10:17:46.374Z,994.26
2019-05-02T10:19:48.791Z,994.21
2019-05-02T10:21:50.155Z,994.25
2019-05-02T10:23:43.706Z,994.19
2019-05-02T10:25:46.646Z,994.15
2019-05-02T10:27:46.021Z,994.14
2019-05-02T10:29:42.391Z,994.10
2019-05-02T10:31:42.639Z,994.12
2019-05-02T10:33:42.323Z,994.04
2019-05-02T10:35:43.373Z,994.05
2019-05-02T10:37:43.074Z,994.03
2019-05-02T10:39:42.391Z,994.00
2019-05-02T10:41:43.782Z,993.94
2019-05-02T10:43:42.454Z,994.00
2019-05-02T10:45:42.631Z,994.06
2019-05-02T10:47:42.394Z,993.91
2019-05-02T10:49:42.674Z,993.85
2019-05-02T10:51:48.992Z,993.76
2019-05-02T10:53:47.099Z,993.83
2019-05-02T10:55:43.116Z,993.81
2019-05-02T10:57:42.206Z,993.74
2019-05-02T10:59:42.205Z,993.77
2019-05-02T11:01:42.023Z,993.79
2019-05-02T11:03:43.728Z,993.68
2019-05-02T11:05:42.999Z,993.68
2019-05-02T11:07:42.069Z,993.70
2019-05-02T11:09:42.076Z,993.66
2019-05-02T11:11:42.510Z,993.71
2019-05-02T11:13:42.593Z,993.63
2019-05-02T11:15:41.943Z,993.50
2019-05-02T11:17:42.333Z,993.43
2019-05-02T11:19:42.041Z,993.43
2019-05-02T11:21:53.545Z,993.40
2019-05-02T11:23:42.841Z,993.44
2019-05-02T11:25:42.209Z,993.39
2019-05-02T11:27:41.956Z,993.45
2019-05-02T11:29:42.514Z,993.40
2019-05-02T11:31:42.744Z,993.35
2019-05-02T11:33:41.905Z,993.35
2019-05-02T11:35:49.094Z,993.36
2019-05-02T11:37:42.638Z,993.25
2019-05-02T11:39:46.567Z,993.22
2019-05-02T11:41:42.596Z,993.22
2019-05-02T11:43:44.870Z,993.31
2019-05-02T11:45:42.461Z,993.26
2019-05-02T11:47:42.306Z,993.28
2019-05-02T11:49:42.544Z,993.30
2019-05-02T11:51:42.491Z,993.28
2019-05-02T11:53:42.014Z,993.21
2019-05-02T11:55:43.734Z,993.15
2019-05-02T11:57:42.562Z,993.19
2019-05-02T11:59:42.508Z,993.17
2019-05-02T12:01:42.645Z,993.17
2019-05-02T12:03:42.296Z,993.11
2019-05-02T12:05:41.970Z,993.14
2019-05-02T12:07:41.804Z,993.07
2019-05-02T12:09:44.308Z,993.01
2019-05-02T12:11:42.275Z,993.01
2019-05-02T12:13:42.796Z,993.04
2019-05-02T12:15:43.558Z,993.04
2019-05-02T12:17:41.960Z,993.01
2019-05-02T12:19:42.591Z,992.92
2019-05-02T12:21:41.960Z,992.90
2019-05-02T12:23:41.805Z,992.81
2019-05-02T12:25:42.289Z,992.96
2019-05-02T12:27:42.508Z,992.98
2019-05-02T12:29:42.363Z,992.84
2019-05-02T12:31:42.702Z,992.83
2019-05-02T12:33:42.680Z,992.83
2019-05-02T12:35:43.039Z,992.81
2019-05-02T12:37:42.401Z,992.82
2019-05-02T12:39:42.526Z,992.79
2019-05-02T12:41:42.180Z,992.82
2019-05-02T12:43:41.642Z,992.69
2019-05-02T12:45:42.086Z,992.72
2019-05-02T12:47:42.729Z,992.59
2019-05-02T12:49:42.444Z,992.51
2019-05-02T12:51:42.742Z,992.54
2019-05-02T12:53:41.805Z,992.50
2019-05-02T12:55:42.134Z,992.59
2019-05-02T12:57:42.729Z,992.57
2019-05-02T12:59:41.680Z,992.61
2019-05-02T13:01:42.172Z,992.54
2019-05-02T13:03:40.704Z,992.50
2019-05-02T13:05:42.500Z,992.42
2019-05-02T13:07:42.794Z,992.48
2019-05-02T13:09:42.095Z,992.49
2019-05-02T13:11:42.286Z,992.49
2019-05-02T13:13:41.916Z,992.45
2019-05-02T13:15:42.379Z,992.37
2019-05-02T13:17:43.889Z,992.43
2019-05-02T13:19:55.186Z,992.31
2019-05-02T13:21:43.067Z,992.33
2019-05-02T13:23:42.387Z,992.37
2019-05-02T13:25:42.339Z,992.23
2019-05-02T13:27:46.069Z,992.22
2019-05-02T13:29:42.850Z,992.22
2019-05-02T13:31:40.396Z,992.27
2019-05-02T13:33:40.384Z,992.19
2019-05-02T13:35:42.167Z,992.14
2019-05-02T13:37:42.313Z,992.07
2019-05-02T13:39:41.923Z,992.10
2019-05-02T13:41:40.290Z,992.15
2019-05-02T13:43:41.871Z,991.99
2019-05-02T13:45:41.914Z,991.99
2019-05-02T13:47:40.233Z,991.98
2019-05-02T13:49:51.392Z,992.02
2019-05-02T13:51:42.602Z,991.88
2019-05-02T13:53:40.175Z,991.96
2019-05-02T13:55:40.134Z,991.92
2019-05-02T13:57:43.009Z,991.83
2019-05-02T13:59:41.657Z,991.87
2019-05-02T14:01:40.066Z,991.81
2019-05-02T14:03:41.972Z,991.80
2019-05-02T14:05:45.959Z,991.75
2019-05-02T14:07:42.866Z,991.82
2019-05-02T14:09:40.024Z,991.79
2019-05-02T14:11:41.644Z,991.70
2019-05-02T14:13:39.935Z,991.66
2019-05-02T14:15:41.951Z,991.64
2019-05-02T14:17:39.917Z,991.63
2019-05-02T14:19:41.920Z,991.61
2019-05-02T14:21:39.864Z,991.58
2019-05-02T14:23:41.900Z,991.65
2019-05-02T14:25:39.805Z,991.61
2019-05-02T14:27:42.023Z,991.59
2019-05-02T14:29:39.779Z,991.59
2019-05-02T14:31:39.743Z,991.61
2019-05-02T14:33:39.737Z,991.56
2019-05-02T14:35:39.702Z,991.57
2019-05-02T14:37:39.674Z,991.57
2019-05-02T14:39:41.536Z,991.61
2019-05-02T14:41:43.934Z,991.65
2019-05-02T14:43:44.535Z,991.61
2019-05-02T14:45:43.323Z,991.64
2019-05-02T14:47:39.580Z,991.64
2019-05-02T14:49:39.549Z,991.64
2019-05-02T14:51:41.635Z,991.70
2019-05-02T14:53:39.511Z,991.74
2019-05-02T14:55:39.498Z,991.76
2019-05-02T14:57:39.462Z,991.77
2019-05-02T14:59:39.453Z,991.74
2019-05-02T15:01:39.416Z,991.71
2019-05-02T15:03:39.420Z,991.72
2019-05-02T15:05:39.433Z,991.69
2019-05-02T15:07:39.356Z,991.64
2019-05-02T15:09:39.335Z,991.69
2019-05-02T15:11:39.343Z,991.74
2019-05-02T15:13:41.059Z,991.60
2019-05-02T15:15:42.921Z,991.67
2019-05-02T15:17:39.255Z,991.61
2019-05-02T15:19:39.224Z,991.63
2019-05-02T15:21:39.225Z,991.68
2019-05-02T15:23:39.200Z,991.64
2019-05-02T15:25:39.176Z,991.64
2019-05-02T15:27:42.351Z,991.59
2019-05-02T15:29:42.040Z,991.60
2019-05-02T15:31:39.107Z,991.67
2019-05-02T15:33:39.092Z,991.56
2019-05-02T15:35:39.079Z,991.54
2019-05-02T15:37:39.036Z,991.50
2019-05-02T15:41:40.029Z,991.47
2019-05-02T15:43:39.190Z,991.45
2019-05-02T15:45:43.544Z,991.46
2019-05-02T15:47:41.565Z,991.43
2019-05-02T15:49:41.673Z,991.49
2019-05-02T15:51:43.628Z,991.46
2019-05-02T15:53:44.700Z,991.39
2019-05-02T15:55:42.139Z,991.42
2019-05-02T15:57:43.579Z,991.44
2019-05-02T15:59:44.902Z,991.41
2019-05-02T16:01:41.219Z,991.43
2019-05-02T16:03:43.061Z,991.49
2019-05-02T16:05:41.248Z,991.47
2019-05-02T16:07:43.361Z,991.53
2019-05-02T16:09:41.519Z,991.49
2019-05-02T16:11:38.682Z,991.50
2019-05-02T16:13:38.681Z,991.60
2019-05-02T16:15:38.625Z,991.71
2019-05-02T16:17:38.607Z,991.83
2019-05-02T16:19:38.603Z,991.81
2019-05-02T16:21:38.556Z,991.83
2019-05-02T16:23:38.546Z,991.78
2019-05-02T16:25:38.536Z,991.73
2019-05-02T16:27:38.492Z,991.82
2019-05-02T16:29:38.493Z,991.82
2019-05-02T16:31:38.453Z,991.86
2019-05-02T16:33:38.441Z,991.92
2019-05-02T16:35:38.427Z,991.83
2019-05-02T16:37:38.387Z,991.87
2019-05-02T16:39:42.645Z,991.88
2019-05-02T16:42:02.399Z,991.91
2019-05-02T16:44:52.287Z,991.96
2019-05-02T16:46:52.123Z,992.06
2019-05-02T16:49:13.449Z,992.00
2019-05-02T16:50:59.745Z,991.93
2019-05-02T17:00:37.173Z,992.08
2019-05-02T17:02:08.033Z,992.11
2019-05-02T17:04:19.409Z,992.11
2019-05-02T17:06:05.016Z,992.07
2019-05-02T17:08:25.952Z,992.11
2019-05-02T17:10:23.495Z,992.13
2019-05-02T17:20:19.502Z,992.13
2019-05-02T17:26:01.604Z,992.12
2019-05-02T17:27:42.401Z,992.13
2019-05-02T17:29:43.274Z,992.09
2019-05-02T17:31:43.211Z,992.20
2019-05-02T17:34:53.744Z,992.26
2019-05-02T17:36:53.724Z,992.19
2019-05-02T17:38:54.493Z,992.15
2019-05-02T17:40:54.502Z,992.17
2019-05-02T17:42:57.130Z,992.20
2019-05-02T17:44:59.262Z,992.14
2019-05-02T17:46:58.225Z,992.25
2019-05-02T17:48:54.619Z,992.23
2019-05-02T17:50:55.968Z,992.24
2019-05-02T17:52:56.088Z,992.23
2019-05-02T17:54:57.487Z,992.21
2019-05-02T17:56:57.394Z,992.24
2019-05-02T17:58:57.882Z,992.26
2019-05-02T18:00:56.160Z,992.25
2019-05-02T18:02:53.456Z,992.27
2019-05-02T18:04:55.797Z,992.25
2019-05-02T18:06:55.122Z,992.32
2019-05-02T18:08:55.285Z,992.27
2019-05-02T18:10:58.544Z,992.28
2019-05-02T18:12:58.238Z,992.30
2019-05-02T18:14:59.129Z,992.34
2019-05-02T18:16:55.621Z,992.36
2019-05-02T18:18:53.295Z,992.33
2019-05-02T18:20:53.275Z,992.35
2019-05-02T18:22:53.253Z,992.35
2019-05-02T18:24:53.253Z,992.34
2019-05-02T18:26:53.208Z,992.36
2019-05-02T18:28:57.099Z,992.39
2019-05-02T18:30:57.098Z,992.36
2019-05-02T18:32:57.697Z,992.34
2019-05-02T18:34:56.902Z,992.47
2019-05-02T18:36:57.364Z,992.45
2019-05-02T18:39:00.177Z,992.40
2019-05-02T18:40:55.411Z,992.45
2019-05-02T18:42:56.502Z,992.40
2019-05-02T18:44:54.568Z,992.48
2019-05-02T18:46:52.982Z,992.44
2019-05-02T18:48:52.961Z,992.47
2019-05-02T18:50:52.938Z,992.52
2019-05-02T18:52:52.920Z,992.56
2019-05-02T18:54:52.896Z,992.56
2019-05-02T18:56:55.303Z,992.58
2019-05-02T18:58:53.579Z,992.55
2019-05-02T19:00:52.808Z,992.61
2019-05-02T19:02:54.625Z,992.59
2019-05-02T19:04:52.783Z,992.59
2019-05-02T19:06:52.768Z,992.63
2019-05-02T19:08:52.727Z,992.65
2019-05-02T19:11:04.603Z,992.61
2019-05-02T19:12:56.193Z,992.65
2019-05-02T19:14:57.542Z,992.73
2019-05-02T19:16:58.010Z,992.72
2019-05-02T19:18:57.290Z,992.73
2019-05-02T19:20:57.532Z,992.72
2019-05-02T19:22:56.777Z,992.77
2019-05-02T19:24:52.557Z,992.73
2019-05-02T19:26:53.388Z,992.75
2019-05-02T19:28:52.509Z,992.75
2019-05-02T19:30:52.484Z,992.72
2019-05-02T19:32:52.477Z,992.71
2019-05-02T19:34:53.154Z,992.79
2019-05-02T19:36:53.000Z,992.83
2019-05-02T19:38:52.565Z,992.89
2019-05-02T19:40:52.372Z,992.82
2019-05-02T19:42:52.731Z,992.78
2019-05-02T19:44:52.766Z,992.76
2019-05-02T19:46:52.309Z,992.73
2019-05-02T19:48:52.318Z,992.83
2019-05-02T19:50:52.280Z,992.84
2019-05-02T19:53:01.047Z,992.81
2019-05-02T19:54:53.213Z,992.78
2019-05-02T19:56:52.551Z,992.78
2019-05-02T19:58:52.293Z,992.76
2019-05-02T20:00:52.592Z,992.77
2019-05-02T20:02:52.318Z,992.70
2019-05-02T20:04:52.122Z,992.83
2019-05-02T20:06:52.082Z,992.71
2019-05-02T20:08:54.460Z,992.78
2019-05-02T20:10:56.866Z,992.75
2019-05-02T20:12:53.033Z,992.79
2019-05-02T20:14:51.996Z,992.76
2019-05-02T20:16:52.840Z,992.74
2019-05-02T20:18:52.546Z,992.74
2019-05-02T20:20:52.080Z,992.78
2019-05-02T20:22:52.411Z,992.69
2019-05-02T20:24:55.328Z,992.73
2019-05-02T20:26:56.134Z,992.73
2019-05-02T20:28:52.773Z,992.82
2019-05-02T20:30:52.659Z,992.83
2019-05-02T20:32:51.841Z,992.85
2019-05-02T20:34:51.792Z,992.82
2019-05-02T20:36:51.938Z,992.87
2019-05-02T20:38:52.544Z,992.77
2019-05-02T20:40:52.268Z,992.83
2019-05-02T20:42:52.748Z,992.82
2019-05-02T20:44:52.797Z,992.79
2019-05-02T20:46:51.739Z,992.81
2019-05-02T20:50:59.829Z,992.79
2019-05-02T20:52:52.404Z,992.81
2019-05-02T20:54:52.344Z,992.86
2019-05-02T20:56:52.065Z,992.88
2019-05-02T20:58:52.649Z,992.81
2019-05-02T21:01:04.776Z,992.92
2019-05-02T21:02:53.033Z,992.88
2019-05-02T21:04:52.301Z,992.92
2019-05-02T21:13:07.227Z,992.96
2019-05-02T21:15:28.599Z,992.90
2019-05-02T21:17:45.683Z,992.99
2019-05-02T21:19:06.129Z,992.89
2019-05-02T21:21:12.587Z,992.91
2019-05-02T21:23:26.160Z,992.94
2019-05-02T21:25:05.345Z,992.88
2019-05-02T21:27:27.110Z,992.92
2019-05-02T21:29:03.991Z,992.96
2019-05-02T21:31:03.926Z,992.94
2019-05-02T21:33:03.917Z,992.93
2019-05-02T21:35:03.898Z,992.99
2019-05-02T21:37:04.085Z,993.07
2019-05-02T21:39:03.857Z,993.12
2019-05-02T21:41:03.831Z,993.16
2019-05-02T21:43:03.999Z,993.15
2019-05-02T21:45:03.804Z,993.18
2019-05-02T21:47:05.895Z,993.18
2019-05-02T21:49:04.127Z,993.23
2019-05-02T21:51:03.736Z,993.26
2019-05-02T21:53:03.698Z,993.31
2019-05-02T21:55:03.684Z,993.30
2019-05-02T21:57:03.645Z,993.29
2019-05-02T21:59:03.650Z,993.25
2019-05-02T22:01:03.605Z,993.25
2019-05-02T22:03:03.586Z,993.32
2019-05-02T22:05:03.567Z,993.32
2019-05-02T22:07:03.533Z,993.21
2019-05-02T22:09:03.512Z,993.19
2019-05-02T22:11:03.505Z,993.26
2019-05-02T22:13:03.478Z,993.26
2019-05-02T22:15:03.463Z,993.32
2019-05-02T22:17:03.433Z,993.34
2019-05-02T22:19:03.412Z,993.34
2019-05-02T22:21:03.398Z,993.41
2019-05-02T22:23:03.368Z,993.40
2019-05-02T22:25:03.345Z,993.36
2019-05-02T22:27:03.331Z,993.40
2019-05-02T22:29:03.297Z,993.46
2019-05-02T22:31:03.403Z,993.47
2019-05-02T22:33:03.255Z,993.50
2019-05-02T22:35:03.240Z,993.50
2019-05-02T22:37:03.251Z,993.50
2019-05-02T22:39:03.207Z,993.51
2019-05-02T22:41:03.616Z,993.57
2019-05-02T22:43:04.616Z,993.53
2019-05-02T22:45:04.532Z,993.50
2019-05-02T22:47:03.127Z,993.58
2019-05-02T22:49:03.083Z,993.56
2019-05-02T22:51:03.068Z,993.58
2019-05-02T22:53:03.058Z,993.58
2019-05-02T22:55:03.097Z,993.55
2019-05-02T22:57:03.002Z,993.62
2019-05-02T22:59:02.988Z,993.62
2019-05-02T23:01:02.965Z,993.60
2019-05-02T23:03:02.948Z,993.66
2019-05-02T23:05:02.925Z,993.61
2019-05-02T23:07:02.889Z,993.63
2019-05-02T23:09:02.888Z,993.62
2019-05-02T23:11:03.524Z,993.65
2019-05-02T23:13:02.824Z,993.71
2019-05-02T23:15:02.818Z,993.67
2019-05-02T23:17:02.795Z,993.71
2019-05-02T23:19:02.889Z,993.75
2019-05-02T23:21:02.780Z,993.80
2019-05-02T23:23:02.726Z,993.84
2019-05-02T23:25:02.949Z,993.75
2019-05-02T23:27:02.687Z,993.72
2019-05-02T23:29:02.666Z,993.69
